PWSweather.com
Personal Weather Stations
Station Observations
COONRAPIDS
Minneapolis, MN 55433

Minneapolis, MN 55433

Lat: 45.187721, Lon: -93.36828

Elevation: 898

Station Type: Davis Vantage Pro 2

Latest ConditionsUpdated 8:20:01 AM CDT Tuesday, Jul 7, 2015
Currently Today's Max Today's Min Today's Average
Temperature 55.8°F13.2°C 56.5°F13.6°C 50.6°F10.3°C 53.2°F11.8°C
Dew Point 45.8°F7.7°C 48.2°F9.0°C 44.1°F6.7°C 46.2°F7.9°C
Winds Calm Calm 0.7 mph NE1.1 kmh NE - 0.0 mph 0.0 kmh
Wind Gusts -- -- - -
Humidity 69% 80% 69% 77%
Pressure 30.13 in1020.3 mb 30.13 in1020.3 mb 30.02 in1016.6 mb -
Hour Temp Dew Point Humidity Winds Wind Gusts Pressure Precip Precip Rate Daily Precip Total
08:20 AM 55.8°F13.2°C 45.8°F7.7°C 69% Calm Calm -- 30.13 in1020.3 mb - 0.00 in0.0 mm 0.00 in0.0 mm
08:10 AM 55.2°F12.9°C 45.2°F7.3°C 69% 0.7 mph NE1.1 kmh NE -- 30.13 in1020.3 mb - 0.00 in0.0 mm 0.00 in0.0 mm
08:00 AM 54.7°F12.6°C 45.2°F7.3°C 70% Calm Calm -- 30.13 in1020.3 mb - 0.00 in0.0 mm 0.00 in0.0 mm
07:50 AM 54.3°F12.4°C 45.1°F7.3°C 71% Calm Calm -- 30.13 in1020.3 mb - 0.00 in0.0 mm 0.00 in0.0 mm
07:40 AM 53.9°F12.2°C 45.1°F7.3°C 72% Calm Calm -- 30.12 in1020.0 mb - 0.00 in0.0 mm 0.00 in0.0 mm
07:30 AM 53.4°F11.9°C 45.0°F7.2°C 73% 0.2 mph NNE0.3 kmh NNE -- 30.12 in1020.0 mb - 0.00 in0.0 mm 0.00 in0.0 mm
07:20 AM 53.1°F11.7°C 45.3°F7.4°C 75% Calm Calm -- 30.12 in1020.0 mb - 0.00 in0.0 mm 0.00 in0.0 mm
07:10 AM 52.6°F11.4°C 44.9°F7.2°C 75% Calm Calm -- 30.12 in1020.0 mb - 0.00 in0.0 mm 0.00 in0.0 mm
07:00 AM 52.3°F11.3°C 44.9°F7.2°C 76% Calm Calm -- 30.12 in1020.0 mb - 0.00 in0.0 mm 0.00 in0.0 mm
06:50 AM 51.9°F11.1°C 44.5°F6.9°C 76% Calm Calm -- 30.12 in1020.0 mb - 0.00 in0.0 mm 0.00 in0.0 mm
06:40 AM 51.4°F10.8°C 44.4°F6.9°C 77% 0.1 mph NE0.2 kmh NE -- 30.11 in1019.6 mb - 0.00 in0.0 mm 0.00 in0.0 mm
06:30 AM 51.1°F10.6°C 44.1°F6.7°C 77% Calm Calm -- 30.11 in1019.6 mb - 0.00 in0.0 mm 0.00 in0.0 mm
06:20 AM 50.8°F10.4°C 44.2°F6.8°C 78% Calm Calm -- 30.11 in1019.6 mb - 0.00 in0.0 mm 0.00 in0.0 mm
06:10 AM 50.7°F10.4°C 44.1°F6.7°C 78% Calm Calm -- 30.11 in1019.6 mb - 0.00 in0.0 mm 0.00 in0.0 mm
06:00 AM 50.6°F10.3°C 44.3°F6.8°C 79% Calm Calm -- 30.10 in1019.3 mb - 0.00 in0.0 mm 0.00 in0.0 mm
05:50 AM 50.6°F10.3°C 44.3°F6.8°C 79% Calm Calm -- 30.09 in1019.0 mb - 0.00 in0.0 mm 0.00 in0.0 mm
05:40 AM 50.6°F10.3°C 44.7°F7.1°C 80% Calm Calm -- 30.09 in1019.0 mb - 0.00 in0.0 mm 0.00 in0.0 mm
05:30 AM 50.6°F10.3°C 44.7°F7.1°C 80% Calm Calm -- 30.09 in1019.0 mb - 0.00 in0.0 mm 0.00 in0.0 mm
05:20 AM 50.9°F10.5°C 44.9°F7.2°C 80% Calm Calm -- 30.09 in1019.0 mb - 0.00 in0.0 mm 0.00 in0.0 mm
05:10 AM 51.1°F10.6°C 45.2°F7.3°C 80% Calm Calm -- 30.08 in1018.6 mb - 0.00 in0.0 mm 0.00 in0.0 mm
05:00 AM 51.4°F10.8°C 45.1°F7.3°C 79% Calm Calm -- 30.08 in1018.6 mb - 0.00 in0.0 mm 0.00 in0.0 mm
04:50 AM 51.6°F10.9°C 45.7°F7.6°C 80% Calm Calm -- 30.07 in1018.3 mb - 0.00 in0.0 mm 0.00 in0.0 mm
04:40 AM 51.9°F11.1°C 45.9°F7.7°C 80% Calm Calm -- 30.07 in1018.3 mb - 0.00 in0.0 mm 0.00 in0.0 mm
04:30 AM 52.0°F11.1°C 46.0°F7.8°C 80% Calm Calm -- 30.07 in1018.3 mb - 0.00 in0.0 mm 0.00 in0.0 mm
04:20 AM 52.1°F11.2°C 46.1°F7.8°C 80% Calm Calm -- 30.07 in1018.3 mb - 0.00 in0.0 mm 0.00 in0.0 mm
04:10 AM 52.3°F11.3°C 46.3°F7.9°C 80% Calm Calm -- 30.07 in1018.3 mb - 0.00 in0.0 mm 0.00 in0.0 mm
04:00 AM 52.5°F11.4°C 46.5°F8.1°C 80% Calm Calm -- 30.06 in1017.9 mb - 0.00 in0.0 mm 0.00 in0.0 mm
03:50 AM 52.6°F11.4°C 46.6°F8.1°C 80% Calm Calm -- 30.06 in1017.9 mb - 0.00 in0.0 mm 0.00 in0.0 mm
03:40 AM 52.8°F11.6°C 46.8°F8.2°C 80% Calm Calm -- 30.05 in1017.6 mb - 0.00 in0.0 mm 0.00 in0.0 mm
03:30 AM 52.9°F11.6°C 46.9°F8.3°C 80% Calm Calm -- 30.06 in1017.9 mb - 0.00 in0.0 mm 0.00 in0.0 mm
03:20 AM 53.1°F11.7°C 47.1°F8.4°C 80% Calm Calm -- 30.06 in1017.9 mb - 0.00 in0.0 mm 0.00 in0.0 mm
03:10 AM 53.3°F11.8°C 47.0°F8.3°C 79% Calm Calm -- 30.05 in1017.6 mb - 0.00 in0.0 mm 0.00 in0.0 mm
03:00 AM 53.7°F12.1°C 47.0°F8.3°C 78% Calm Calm -- 30.05 in1017.6 mb - 0.00 in0.0 mm 0.00 in0.0 mm
02:50 AM 53.8°F12.1°C 47.1°F8.4°C 78% Calm Calm -- 30.05 in1017.6 mb - 0.00 in0.0 mm 0.00 in0.0 mm
02:40 AM 54.0°F12.2°C 47.0°F8.3°C 77% Calm Calm -- 30.04 in1017.3 mb - 0.00 in0.0 mm 0.00 in0.0 mm
02:30 AM 54.1°F12.3°C 47.4°F8.6°C 78% Calm Calm -- 30.04 in1017.3 mb - 0.00 in0.0 mm 0.00 in0.0 mm
02:20 AM 54.0°F12.2°C 47.3°F8.5°C 78% Calm Calm -- 30.04 in1017.3 mb - 0.00 in0.0 mm 0.00 in0.0 mm
02:10 AM 53.9°F12.2°C 47.6°F8.7°C 79% Calm Calm -- 30.04 in1017.3 mb - 0.00 in0.0 mm 0.00 in0.0 mm
02:00 AM 54.0°F12.2°C 47.6°F8.7°C 79% Calm Calm -- 30.03 in1016.9 mb - 0.00 in0.0 mm 0.00 in0.0 mm
01:50 AM 54.1°F12.3°C 47.4°F8.6°C 78% Calm Calm -- 30.03 in1016.9 mb - 0.00 in0.0 mm 0.00 in0.0 mm
01:40 AM 54.2°F12.3°C 47.9°F8.8°C 79% Calm Calm -- 30.03 in1016.9 mb - 0.00 in0.0 mm 0.00 in0.0 mm
01:30 AM 54.3°F12.4°C 47.6°F8.7°C 78% Calm Calm -- 30.03 in1016.9 mb - 0.00 in0.0 mm 0.00 in0.0 mm
01:20 AM 54.3°F12.4°C 47.9°F8.8°C 79% Calm Calm -- 30.03 in1016.9 mb - 0.00 in0.0 mm 0.00 in0.0 mm
01:10 AM 54.5°F12.5°C 48.1°F8.9°C 79% Calm Calm -- 30.02 in1016.6 mb - 0.00 in0.0 mm 0.00 in0.0 mm
01:00 AM 54.6°F12.6°C 48.2°F9.0°C 79% Calm Calm -- 30.02 in1016.6 mb - 0.00 in0.0 mm 0.00 in0.0 mm
12:50 AM 54.8°F12.7°C 48.0°F8.9°C 78% Calm Calm -- 30.02 in1016.6 mb - 0.00 in0.0 mm 0.00 in0.0 mm
12:40 AM 55.1°F12.8°C 48.0°F8.9°C 77% Calm Calm -- 30.02 in1016.6 mb - 0.00 in0.0 mm 0.00 in0.0 mm
12:30 AM 55.3°F12.9°C 47.9°F8.8°C 76% Calm Calm -- 30.02 in1016.6 mb - 0.00 in0.0 mm 0.00 in0.0 mm
12:20 AM 55.7°F13.2°C 47.9°F8.8°C 75% Calm Calm -- 30.02 in1016.6 mb - 0.00 in0.0 mm 0.00 in0.0 mm
12:10 AM 56.2°F13.4°C 48.0°F8.9°C 74% Calm Calm -- 30.02 in1016.6 mb - 0.00 in0.0 mm 0.00 in0.0 mm
12:00 AM 56.5°F13.6°C 48.0°F8.9°C 73% Calm Calm -- 30.02 in1016.6 mb - 0.00 in0.0 mm 0.00 in0.0 mm